sensor_id;sensor_type;location;lat;lon;timestamp;temperature;humidity
33564;DHT22;19894;48.452;11.494;2022-11-18T00:00:54;19.10;45.90
33564;DHT22;19894;48.452;11.494;2022-11-18T00:03:20;19.20;46.00
33564;DHT22;19894;48.452;11.494;2022-11-18T00:05:56;19.20;46.00
33564;DHT22;19894;48.452;11.494;2022-11-18T00:08:24;19.20;46.50
33564;DHT22;19894;48.452;11.494;2022-11-18T00:10:50;19.20;45.90
33564;DHT22;19894;48.452;11.494;2022-11-18T00:13:16;19.10;45.80
33564;DHT22;19894;48.452;11.494;2022-11-18T00:16:05;19.20;45.90
33564;DHT22;19894;48.452;11.494;2022-11-18T00:18:32;19.10;45.80
33564;DHT22;19894;48.452;11.494;2022-11-18T00:21:06;19.10;45.80
33564;DHT22;19894;48.452;11.494;2022-11-18T00:23:32;19.10;45.80
33564;DHT22;19894;48.452;11.494;2022-11-18T00:26:07;19.10;45.80
33564;DHT22;19894;48.452;11.494;2022-11-18T00:28:33;19.10;45.90
33564;DHT22;19894;48.452;11.494;2022-11-18T00:31:10;19.10;45.90
33564;DHT22;19894;48.452;11.494;2022-11-18T00:33:36;19.10;45.90
33564;DHT22;19894;48.452;11.494;2022-11-18T00:36:03;19.10;45.90
33564;DHT22;19894;48.452;11.494;2022-11-18T00:38:29;19.10;45.90
33564;DHT22;19894;48.452;11.494;2022-11-18T00:41:02;19.10;45.90
33564;DHT22;19894;48.452;11.494;2022-11-18T00:43:29;19.10;46.00
33564;DHT22;19894;48.452;11.494;2022-11-18T00:45:56;19.10;45.90
33564;DHT22;19894;48.452;11.494;2022-11-18T00:48:21;19.10;46.00
33564;DHT22;19894;48.452;11.494;2022-11-18T00:50:48;19.10;46.00
33564;DHT22;19894;48.452;11.494;2022-11-18T00:53:15;19.10;46.00
33564;DHT22;19894;48.452;11.494;2022-11-18T00:55:41;19.10;46.00
33564;DHT22;19894;48.452;11.494;2022-11-18T00:58:06;19.10;46.00
33564;DHT22;19894;48.452;11.494;2022-11-18T01:00:32;19.10;46.10
33564;DHT22;19894;48.452;11.494;2022-11-18T01:02:57;19.10;46.00
33564;DHT22;19894;48.452;11.494;2022-11-18T01:05:23;19.10;46.00
33564;DHT22;19894;48.452;11.494;2022-11-18T01:07:49;19.20;46.10
33564;DHT22;19894;48.452;11.494;2022-11-18T01:10:15;19.10;46.00
33564;DHT22;19894;48.452;11.494;2022-11-18T01:12:41;19.20;46.60
33564;DHT22;19894;48.452;11.494;2022-11-18T01:15:25;19.20;46.00
33564;DHT22;19894;48.452;11.494;2022-11-18T01:17:50;19.10;45.90
33564;DHT22;19894;48.452;11.494;2022-11-18T01:20:16;19.10;45.90
33564;DHT22;19894;48.452;11.494;2022-11-18T01:22:42;19.20;45.90
33564;DHT22;19894;48.452;11.494;2022-11-18T01:25:08;19.10;45.80
33564;DHT22;19894;48.452;11.494;2022-11-18T01:27:33;19.10;45.90
33564;DHT22;19894;48.452;11.494;2022-11-18T01:29:59;19.20;46.00
33564;DHT22;19894;48.452;11.494;2022-11-18T01:32:24;19.10;45.90
33564;DHT22;19894;48.452;11.494;2022-11-18T01:34:52;19.10;46.00
33564;DHT22;19894;48.452;11.494;2022-11-18T01:37:17;19.10;46.00
33564;DHT22;19894;48.452;11.494;2022-11-18T01:39:43;19.10;46.00
33564;DHT22;19894;48.452;11.494;2022-11-18T01:42:13;19.10;46.00
33564;DHT22;19894;48.452;11.494;2022-11-18T01:47:24;19.10;46.00
33564;DHT22;19894;48.452;11.494;2022-11-18T01:49:51;19.10;46.00
33564;DHT22;19894;48.452;11.494;2022-11-18T01:52:17;19.10;46.00
33564;DHT22;19894;48.452;11.494;2022-11-18T01:54:47;19.10;46.00
33564;DHT22;19894;48.452;11.494;2022-11-18T01:57:15;19.10;46.10
33564;DHT22;19894;48.452;11.494;2022-11-18T01:59:45;19.10;46.10
33564;DHT22;19894;48.452;11.494;2022-11-18T02:02:13;19.10;46.10
33564;DHT22;19894;48.452;11.494;2022-11-18T02:04:40;19.10;46.10
33564;DHT22;19894;48.452;11.494;2022-11-18T02:07:08;19.10;46.10
33564;DHT22;19894;48.452;11.494;2022-11-18T02:09:35;19.10;46.10
33564;DHT22;19894;48.452;11.494;2022-11-18T02:12:00;19.10;46.10
33564;DHT22;19894;48.452;11.494;2022-11-18T02:14:33;19.20;46.10
33564;DHT22;19894;48.452;11.494;2022-11-18T02:25:19;19.10;46.00
33564;DHT22;19894;48.452;11.494;2022-11-18T02:30:16;19.10;45.90
33564;DHT22;19894;48.452;11.494;2022-11-18T02:33:07;19.20;46.00
33564;DHT22;19894;48.452;11.494;2022-11-18T02:35:46;19.10;46.00
33564;DHT22;19894;48.452;11.494;2022-11-18T02:38:29;19.10;46.00
33564;DHT22;19894;48.452;11.494;2022-11-18T02:41:00;19.10;46.00
33564;DHT22;19894;48.452;11.494;2022-11-18T02:43:32;19.10;46.10
33564;DHT22;19894;48.452;11.494;2022-11-18T02:46:02;19.10;46.10
33564;DHT22;19894;48.452;11.494;2022-11-18T02:48:32;19.10;46.10
33564;DHT22;19894;48.452;11.494;2022-11-18T02:51:00;19.10;46.10
33564;DHT22;19894;48.452;11.494;2022-11-18T02:53:29;19.10;46.10
33564;DHT22;19894;48.452;11.494;2022-11-18T02:55:57;19.10;46.10
33564;DHT22;19894;48.452;11.494;2022-11-18T02:58:24;19.10;46.10
33564;DHT22;19894;48.452;11.494;2022-11-18T03:00:54;19.10;46.10
33564;DHT22;19894;48.452;11.494;2022-11-18T03:03:32;19.10;46.10
33564;DHT22;19894;48.452;11.494;2022-11-18T03:09:00;19.10;46.10
33564;DHT22;19894;48.452;11.494;2022-11-18T03:11:29;19.10;46.10
33564;DHT22;19894;48.452;11.494;2022-11-18T03:17:14;19.10;46.10
33564;DHT22;19894;48.452;11.494;2022-11-18T03:22:27;19.10;46.10
33564;DHT22;19894;48.452;11.494;2022-11-18T03:25:37;19.10;46.10
33564;DHT22;19894;48.452;11.494;2022-11-18T03:28:10;19.10;46.10
33564;DHT22;19894;48.452;11.494;2022-11-18T03:30:43;19.10;46.00
33564;DHT22;19894;48.452;11.494;2022-11-18T03:33:13;19.10;46.00
33564;DHT22;19894;48.452;11.494;2022-11-18T03:35:44;19.10;46.00
33564;DHT22;19894;48.452;11.494;2022-11-18T03:38:14;19.10;46.00
33564;DHT22;19894;48.452;11.494;2022-11-18T03:40:45;19.10;46.10
33564;DHT22;19894;48.452;11.494;2022-11-18T03:43:16;19.10;46.10
33564;DHT22;19894;48.452;11.494;2022-11-18T03:45:47;19.10;46.10
33564;DHT22;19894;48.452;11.494;2022-11-18T03:48:19;19.10;46.10
33564;DHT22;19894;48.452;11.494;2022-11-18T03:50:57;19.10;46.20
33564;DHT22;19894;48.452;11.494;2022-11-18T03:53:26;19.10;46.10
33564;DHT22;19894;48.452;11.494;2022-11-18T03:55:57;19.10;46.20
33564;DHT22;19894;48.452;11.494;2022-11-18T03:58:42;19.10;46.10
33564;DHT22;19894;48.452;11.494;2022-11-18T04:01:18;19.10;46.20
33564;DHT22;19894;48.452;11.494;2022-11-18T04:03:45;19.10;46.20
33564;DHT22;19894;48.452;11.494;2022-11-18T04:06:33;19.10;46.20
33564;DHT22;19894;48.452;11.494;2022-11-18T04:09:07;19.10;46.30
33564;DHT22;19894;48.452;11.494;2022-11-18T04:11:47;19.10;46.30
33564;DHT22;19894;48.452;11.494;2022-11-18T04:14:35;19.10;46.30
33564;DHT22;19894;48.452;11.494;2022-11-18T04:17:13;19.10;46.30
33564;DHT22;19894;48.452;11.494;2022-11-18T04:19:39;19.10;46.30
33564;DHT22;19894;48.452;11.494;2022-11-18T04:22:06;19.10;46.30
33564;DHT22;19894;48.452;11.494;2022-11-18T04:24:32;19.10;46.30
33564;DHT22;19894;48.452;11.494;2022-11-18T04:26:57;19.10;46.30
33564;DHT22;19894;48.452;11.494;2022-11-18T04:29:23;19.10;46.30
33564;DHT22;19894;48.452;11.494;2022-11-18T04:31:48;19.10;46.30
33564;DHT22;19894;48.452;11.494;2022-11-18T04:34:14;19.10;46.30
33564;DHT22;19894;48.452;11.494;2022-11-18T04:36:40;19.10;46.20
33564;DHT22;19894;48.452;11.494;2022-11-18T04:39:05;19.20;46.20
33564;DHT22;19894;48.452;11.494;2022-11-18T04:41:31;19.10;46.10
33564;DHT22;19894;48.452;11.494;2022-11-18T04:44:15;19.10;46.10
33564;DHT22;19894;48.452;11.494;2022-11-18T04:46:41;19.10;46.20
33564;DHT22;19894;48.452;11.494;2022-11-18T04:49:09;19.10;46.20
33564;DHT22;19894;48.452;11.494;2022-11-18T04:51:34;19.10;46.20
33564;DHT22;19894;48.452;11.494;2022-11-18T04:54:01;19.10;46.20
33564;DHT22;19894;48.452;11.494;2022-11-18T04:56:26;19.10;46.20
33564;DHT22;19894;48.452;11.494;2022-11-18T04:58:52;19.10;46.20
33564;DHT22;19894;48.452;11.494;2022-11-18T05:01:17;19.10;46.20
33564;DHT22;19894;48.452;11.494;2022-11-18T05:03:43;19.10;46.30
33564;DHT22;19894;48.452;11.494;2022-11-18T05:06:09;19.10;46.30
33564;DHT22;19894;48.452;11.494;2022-11-18T05:08:34;19.10;46.30
33564;DHT22;19894;48.452;11.494;2022-11-18T05:11:05;19.10;46.30
33564;DHT22;19894;48.452;11.494;2022-11-18T05:13:49;19.10;46.30
33564;DHT22;19894;48.452;11.494;2022-11-18T05:16:15;19.10;46.30
33564;DHT22;19894;48.452;11.494;2022-11-18T05:18:41;19.10;46.30
33564;DHT22;19894;48.452;11.494;2022-11-18T05:21:07;19.10;46.40
33564;DHT22;19894;48.452;11.494;2022-11-18T05:23:32;19.10;46.40
33564;DHT22;19894;48.452;11.494;2022-11-18T05:26:06;19.10;46.30
33564;DHT22;19894;48.452;11.494;2022-11-18T05:28:32;19.10;46.30
33564;DHT22;19894;48.452;11.494;2022-11-18T05:30:58;19.20;46.40
33564;DHT22;19894;48.452;11.494;2022-11-18T05:33:23;19.20;46.40
33564;DHT22;19894;48.452;11.494;2022-11-18T05:35:49;19.20;46.40
33564;DHT22;19894;48.452;11.494;2022-11-18T05:38:15;19.20;46.30
33564;DHT22;19894;48.452;11.494;2022-11-18T05:40:44;19.10;46.20
33564;DHT22;19894;48.452;11.494;2022-11-18T05:43:09;19.20;46.20
33564;DHT22;19894;48.452;11.494;2022-11-18T05:45:35;19.10;46.70
33564;DHT22;19894;48.452;11.494;2022-11-18T05:48:01;19.10;46.20
33564;DHT22;19894;48.452;11.494;2022-11-18T05:50:29;19.10;46.20
33564;DHT22;19894;48.452;11.494;2022-11-18T05:52:55;19.20;46.20
33564;DHT22;19894;48.452;11.494;2022-11-18T05:55:23;19.10;46.30
33564;DHT22;19894;48.452;11.494;2022-11-18T05:57:50;19.10;46.30
33564;DHT22;19894;48.452;11.494;2022-11-18T06:00:16;19.10;46.30
33564;DHT22;19894;48.452;11.494;2022-11-18T06:02:42;19.10;46.30
33564;DHT22;19894;48.452;11.494;2022-11-18T06:05:10;19.10;46.30
33564;DHT22;19894;48.452;11.494;2022-11-18T06:07:41;19.10;46.30
33564;DHT22;19894;48.452;11.494;2022-11-18T06:10:15;19.10;46.30
33564;DHT22;19894;48.452;11.494;2022-11-18T06:12:44;19.10;46.30
33564;DHT22;19894;48.452;11.494;2022-11-18T06:15:24;19.10;46.30
33564;DHT22;19894;48.452;11.494;2022-11-18T06:17:52;19.10;46.30
33564;DHT22;19894;48.452;11.494;2022-11-18T06:20:19;19.10;46.30
33564;DHT22;19894;48.452;11.494;2022-11-18T06:22:47;19.10;46.30
33564;DHT22;19894;48.452;11.494;2022-11-18T06:25:13;19.10;46.30
33564;DHT22;19894;48.452;11.494;2022-11-18T06:27:39;19.10;46.30
33564;DHT22;19894;48.452;11.494;2022-11-18T06:30:06;19.10;46.30
33564;DHT22;19894;48.452;11.494;2022-11-18T06:32:32;19.10;46.30
33564;DHT22;19894;48.452;11.494;2022-11-18T06:34:57;19.10;46.30
33564;DHT22;19894;48.452;11.494;2022-11-18T06:37:23;19.10;46.30
33564;DHT22;19894;48.452;11.494;2022-11-18T06:39:48;19.10;46.30
33564;DHT22;19894;48.452;11.494;2022-11-18T06:42:14;19.10;46.30
33564;DHT22;19894;48.452;11.494;2022-11-18T06:45:00;19.10;46.20
33564;DHT22;19894;48.452;11.494;2022-11-18T06:47:26;19.10;46.20
33564;DHT22;19894;48.452;11.494;2022-11-18T06:49:52;19.10;46.20
33564;DHT22;19894;48.452;11.494;2022-11-18T06:52:18;19.10;46.20
33564;DHT22;19894;48.452;11.494;2022-11-18T06:54:43;19.20;46.30
33564;DHT22;19894;48.452;11.494;2022-11-18T06:57:09;19.20;46.30
33564;DHT22;19894;48.452;11.494;2022-11-18T06:59:34;19.10;46.30
33564;DHT22;19894;48.452;11.494;2022-11-18T07:02:00;19.10;46.30
33564;DHT22;19894;48.452;11.494;2022-11-18T07:04:26;19.10;46.30
33564;DHT22;19894;48.452;11.494;2022-11-18T07:06:51;19.10;46.30
33564;DHT22;19894;48.452;11.494;2022-11-18T07:09:17;19.10;46.40
33564;DHT22;19894;48.452;11.494;2022-11-18T07:11:43;19.10;46.30
33564;DHT22;19894;48.452;11.494;2022-11-18T07:14:08;19.10;46.30
33564;DHT22;19894;48.452;11.494;2022-11-18T07:16:35;19.10;46.30
33564;DHT22;19894;48.452;11.494;2022-11-18T07:19:06;19.10;46.40
33564;DHT22;19894;48.452;11.494;2022-11-18T07:21:32;19.10;46.40
33564;DHT22;19894;48.452;11.494;2022-11-18T07:23:57;19.10;46.40
33564;DHT22;19894;48.452;11.494;2022-11-18T07:26:23;19.10;46.40
33564;DHT22;19894;48.452;11.494;2022-11-18T07:28:49;19.10;46.40
33564;DHT22;19894;48.452;11.494;2022-11-18T07:31:16;19.10;46.40
33564;DHT22;19894;48.452;11.494;2022-11-18T07:33:43;19.10;46.40
33564;DHT22;19894;48.452;11.494;2022-11-18T07:36:12;19.10;46.30
33564;DHT22;19894;48.452;11.494;2022-11-18T07:38:39;19.10;46.40
33564;DHT22;19894;48.452;11.494;2022-11-18T07:41:10;19.10;46.30
33564;DHT22;19894;48.452;11.494;2022-11-18T07:43:36;19.10;46.30
33564;DHT22;19894;48.452;11.494;2022-11-18T07:46:14;19.20;46.30
33564;DHT22;19894;48.452;11.494;2022-11-18T07:48:41;19.20;46.30
33564;DHT22;19894;48.452;11.494;2022-11-18T07:51:07;19.20;46.30
33564;DHT22;19894;48.452;11.494;2022-11-18T07:53:33;19.10;46.20
33564;DHT22;19894;48.452;11.494;2022-11-18T07:55:59;19.10;46.30
33564;DHT22;19894;48.452;11.494;2022-11-18T07:58:25;19.10;46.20
33564;DHT22;19894;48.452;11.494;2022-11-18T08:00:51;19.20;46.20
33564;DHT22;19894;48.452;11.494;2022-11-18T08:03:16;19.10;46.20
33564;DHT22;19894;48.452;11.494;2022-11-18T08:05:42;19.10;46.20
33564;DHT22;19894;48.452;11.494;2022-11-18T08:08:08;19.10;46.30
33564;DHT22;19894;48.452;11.494;2022-11-18T08:10:35;19.10;46.30
33564;DHT22;19894;48.452;11.494;2022-11-18T08:13:01;19.10;46.30
33564;DHT22;19894;48.452;11.494;2022-11-18T08:15:26;19.10;46.30
33564;DHT22;19894;48.452;11.494;2022-11-18T08:17:52;19.10;46.30
33564;DHT22;19894;48.452;11.494;2022-11-18T08:20:17;19.10;46.30
33564;DHT22;19894;48.452;11.494;2022-11-18T08:22:43;19.10;46.30
33564;DHT22;19894;48.452;11.494;2022-11-18T08:25:09;19.10;46.30
33564;DHT22;19894;48.452;11.494;2022-11-18T08:27:34;19.10;46.30
33564;DHT22;19894;48.452;11.494;2022-11-18T08:30:00;19.10;46.30
33564;DHT22;19894;48.452;11.494;2022-11-18T08:32:26;19.10;46.30
33564;DHT22;19894;48.452;11.494;2022-11-18T08:34:51;19.10;46.20
33564;DHT22;19894;48.452;11.494;2022-11-18T08:37:17;19.10;46.20
33564;DHT22;19894;48.452;11.494;2022-11-18T08:39:43;19.10;46.10
33564;DHT22;19894;48.452;11.494;2022-11-18T08:42:09;19.10;46.10
33564;DHT22;19894;48.452;11.494;2022-11-18T08:44:35;19.10;46.10
33564;DHT22;19894;48.452;11.494;2022-11-18T08:47:00;19.10;46.10
33564;DHT22;19894;48.452;11.494;2022-11-18T08:49:26;19.10;46.00
33564;DHT22;19894;48.452;11.494;2022-11-18T08:51:52;19.10;46.00
33564;DHT22;19894;48.452;11.494;2022-11-18T08:54:18;19.10;46.00
33564;DHT22;19894;48.452;11.494;2022-11-18T08:56:43;19.10;46.00
33564;DHT22;19894;48.452;11.494;2022-11-18T08:59:09;19.10;46.00
33564;DHT22;19894;48.452;11.494;2022-11-18T09:01:36;19.10;46.00
33564;DHT22;19894;48.452;11.494;2022-11-18T09:04:02;19.10;46.00
33564;DHT22;19894;48.452;11.494;2022-11-18T09:06:28;19.10;46.00
33564;DHT22;19894;48.452;11.494;2022-11-18T09:08:54;19.10;46.00
33564;DHT22;19894;48.452;11.494;2022-11-18T09:11:22;19.10;46.10
33564;DHT22;19894;48.452;11.494;2022-11-18T09:13:53;19.10;46.10
33564;DHT22;19894;48.452;11.494;2022-11-18T09:16:21;19.10;46.10
33564;DHT22;19894;48.452;11.494;2022-11-18T09:18:48;19.10;46.60
33564;DHT22;19894;48.452;11.494;2022-11-18T09:21:14;19.10;46.10
33564;DHT22;19894;48.452;11.494;2022-11-18T09:23:40;19.10;46.10
33564;DHT22;19894;48.452;11.494;2022-11-18T09:26:13;19.10;46.10
33564;DHT22;19894;48.452;11.494;2022-11-18T09:28:40;19.10;46.10
33564;DHT22;19894;48.452;11.494;2022-11-18T09:31:14;19.10;46.10
33564;DHT22;19894;48.452;11.494;2022-11-18T09:33:40;19.10;46.10
33564;DHT22;19894;48.452;11.494;2022-11-18T09:36:23;19.10;46.10
33564;DHT22;19894;48.452;11.494;2022-11-18T09:38:50;19.10;46.00
33564;DHT22;19894;48.452;11.494;2022-11-18T09:46:46;19.10;45.90
33564;DHT22;19894;48.452;11.494;2022-11-18T09:49:39;19.10;45.90
33564;DHT22;19894;48.452;11.494;2022-11-18T09:54:41;19.10;45.90
33564;DHT22;19894;48.452;11.494;2022-11-18T09:57:24;19.10;45.90
33564;DHT22;19894;48.452;11.494;2022-11-18T09:59:51;19.10;45.90
33564;DHT22;19894;48.452;11.494;2022-11-18T10:05:01;19.10;45.90
33564;DHT22;19894;48.452;11.494;2022-11-18T10:07:48;19.10;45.90
33564;DHT22;19894;48.452;11.494;2022-11-18T10:10:23;19.10;46.00
33564;DHT22;19894;48.452;11.494;2022-11-18T10:18:59;19.10;46.10
33564;DHT22;19894;48.452;11.494;2022-11-18T10:24:24;19.10;46.10
33564;DHT22;19894;48.452;11.494;2022-11-18T10:26:56;19.10;46.10
33564;DHT22;19894;48.452;11.494;2022-11-18T10:29:22;19.00;46.00
33564;DHT22;19894;48.452;11.494;2022-11-18T10:34:25;19.10;46.10
33564;DHT22;19894;48.452;11.494;2022-11-18T10:37:21;19.10;46.10
33564;DHT22;19894;48.452;11.494;2022-11-18T10:39:54;19.10;46.00
33564;DHT22;19894;48.452;11.494;2022-11-18T10:42:40;19.10;46.00
33564;DHT22;19894;48.452;11.494;2022-11-18T10:47:58;19.10;45.90
33564;DHT22;19894;48.452;11.494;2022-11-18T10:53:03;19.10;46.30
33564;DHT22;19894;48.452;11.494;2022-11-18T10:55:30;19.10;45.80
33564;DHT22;19894;48.452;11.494;2022-11-18T10:58:12;19.10;45.80
33564;DHT22;19894;48.452;11.494;2022-11-18T11:00:41;19.10;45.80
33564;DHT22;19894;48.452;11.494;2022-11-18T11:03:38;19.10;45.70
33564;DHT22;19894;48.452;11.494;2022-11-18T11:09:03;19.10;45.80
33564;DHT22;19894;48.452;11.494;2022-11-18T11:11:32;19.10;45.80
33564;DHT22;19894;48.452;11.494;2022-11-18T11:14:22;19.10;45.80
33564;DHT22;19894;48.452;11.494;2022-11-18T11:17:09;19.10;45.80
33564;DHT22;19894;48.452;11.494;2022-11-18T11:22:10;19.10;45.90
33564;DHT22;19894;48.452;11.494;2022-11-18T11:24:36;19.10;45.90
33564;DHT22;19894;48.452;11.494;2022-11-18T11:34:45;19.00;45.90
33564;DHT22;19894;48.452;11.494;2022-11-18T11:37:25;19.10;45.90
33564;DHT22;19894;48.452;11.494;2022-11-18T11:40:21;19.10;46.00
33564;DHT22;19894;48.452;11.494;2022-11-18T11:46:13;19.10;46.00
33564;DHT22;19894;48.452;11.494;2022-11-18T11:48:51;19.00;45.80
33564;DHT22;19894;48.452;11.494;2022-11-18T11:54:01;19.10;45.80
33564;DHT22;19894;48.452;11.494;2022-11-18T11:56:46;19.10;45.70
33564;DHT22;19894;48.452;11.494;2022-11-18T12:02:13;19.10;45.70
33564;DHT22;19894;48.452;11.494;2022-11-18T12:05:10;19.10;45.70
33564;DHT22;19894;48.452;11.494;2022-11-18T12:08:31;19.10;45.60
33564;DHT22;19894;48.452;11.494;2022-11-18T12:20:47;19.10;45.80
33564;DHT22;19894;48.452;11.494;2022-11-18T12:23:19;19.10;45.80
33564;DHT22;19894;48.452;11.494;2022-11-18T12:25:53;19.10;45.80
33564;DHT22;19894;48.452;11.494;2022-11-18T12:34:01;19.10;45.80
33564;DHT22;19894;48.452;11.494;2022-11-18T12:38:55;19.10;45.90
33564;DHT22;19894;48.452;11.494;2022-11-18T12:44:27;19.10;45.90
33564;DHT22;19894;48.452;11.494;2022-11-18T12:46:55;19.10;45.90
33564;DHT22;19894;48.452;11.494;2022-11-18T12:51:47;19.10;45.90
33564;DHT22;19894;48.452;11.494;2022-11-18T12:54:45;19.10;45.80
33564;DHT22;19894;48.452;11.494;2022-11-18T12:57:21;19.10;45.70
33564;DHT22;19894;48.452;11.494;2022-11-18T12:59:47;19.10;45.70
33564;DHT22;19894;48.452;11.494;2022-11-18T13:04:41;19.10;46.20
33564;DHT22;19894;48.452;11.494;2022-11-18T13:07:11;19.10;45.60
33564;DHT22;19894;48.452;11.494;2022-11-18T13:09:56;19.10;45.60
33564;DHT22;19894;48.452;11.494;2022-11-18T13:12:25;19.10;45.50
33564;DHT22;19894;48.452;11.494;2022-11-18T13:14:51;19.10;45.60
33564;DHT22;19894;48.452;11.494;2022-11-18T13:20:55;19.10;45.60
33564;DHT22;19894;48.452;11.494;2022-11-18T13:23:30;19.10;45.70
33564;DHT22;19894;48.452;11.494;2022-11-18T13:26:29;19.10;45.70
33564;DHT22;19894;48.452;11.494;2022-11-18T13:37:18;19.10;45.70
33564;DHT22;19894;48.452;11.494;2022-11-18T13:39:46;19.10;45.70
33564;DHT22;19894;48.452;11.494;2022-11-18T13:44:58;19.10;45.80
33564;DHT22;19894;48.452;11.494;2022-11-18T13:47:51;19.00;45.70
33564;DHT22;19894;48.452;11.494;2022-11-18T13:50:29;19.10;45.80
33564;DHT22;19894;48.452;11.494;2022-11-18T13:56:03;19.10;45.70
33564;DHT22;19894;48.452;11.494;2022-11-18T13:58:43;19.00;45.60
33564;DHT22;19894;48.452;11.494;2022-11-18T14:01:16;19.00;45.50
33564;DHT22;19894;48.452;11.494;2022-11-18T14:09:14;19.10;45.50
33564;DHT22;19894;48.452;11.494;2022-11-18T14:11:44;19.10;45.50
33564;DHT22;19894;48.452;11.494;2022-11-18T14:14:11;19.10;45.50
33564;DHT22;19894;48.452;11.494;2022-11-18T14:16:39;19.10;45.40
33564;DHT22;19894;48.452;11.494;2022-11-18T14:19:06;19.10;45.50
33564;DHT22;19894;48.452;11.494;2022-11-18T14:21:50;19.10;45.50
33564;DHT22;19894;48.452;11.494;2022-11-18T14:24:16;19.10;45.50
33564;DHT22;19894;48.452;11.494;2022-11-18T14:26:49;19.10;45.60
33564;DHT22;19894;48.452;11.494;2022-11-18T14:29:17;19.10;45.60
33564;DHT22;19894;48.452;11.494;2022-11-18T14:32:13;19.10;45.60
33564;DHT22;19894;48.452;11.494;2022-11-18T14:34:39;19.10;45.60
33564;DHT22;19894;48.452;11.494;2022-11-18T14:37:13;19.10;45.70
33564;DHT22;19894;48.452;11.494;2022-11-18T14:39:39;19.10;45.70
33564;DHT22;19894;48.452;11.494;2022-11-18T14:42:08;19.10;45.70
33564;DHT22;19894;48.452;11.494;2022-11-18T14:44:34;19.10;45.70
33564;DHT22;19894;48.452;11.494;2022-11-18T14:47:20;19.10;45.70
33564;DHT22;19894;48.452;11.494;2022-11-18T14:49:46;19.10;45.70
33564;DHT22;19894;48.452;11.494;2022-11-18T14:52:12;19.10;45.80
33564;DHT22;19894;48.452;11.494;2022-11-18T14:54:37;19.10;45.80
33564;DHT22;19894;48.452;11.494;2022-11-18T14:57:04;19.10;45.70
33564;DHT22;19894;48.452;11.494;2022-11-18T14:59:30;19.00;45.70
33564;DHT22;19894;48.452;11.494;2022-11-18T15:01:56;19.10;45.70
33564;DHT22;19894;48.452;11.494;2022-11-18T15:04:23;19.00;45.60
33564;DHT22;19894;48.452;11.494;2022-11-18T15:06:49;19.00;45.60
33564;DHT22;19894;48.452;11.494;2022-11-18T15:09:15;19.00;45.60
33564;DHT22;19894;48.452;11.494;2022-11-18T15:11:41;19.10;45.60
33564;DHT22;19894;48.452;11.494;2022-11-18T15:14:06;19.00;45.50
33564;DHT22;19894;48.452;11.494;2022-11-18T15:16:33;19.10;45.60
33564;DHT22;19894;48.452;11.494;2022-11-18T15:19:00;19.10;45.60
33564;DHT22;19894;48.452;11.494;2022-11-18T15:21:26;19.10;45.60
33564;DHT22;19894;48.452;11.494;2022-11-18T15:23:52;19.10;45.60
33564;DHT22;19894;48.452;11.494;2022-11-18T15:26:29;19.10;45.60
33564;DHT22;19894;48.452;11.494;2022-11-18T15:28:58;19.10;45.60
33564;DHT22;19894;48.452;11.494;2022-11-18T15:31:24;19.10;45.60
33564;DHT22;19894;48.452;11.494;2022-11-18T15:33:50;19.10;45.70
33564;DHT22;19894;48.452;11.494;2022-11-18T15:36:21;19.10;45.70
33564;DHT22;19894;48.452;11.494;2022-11-18T15:38:48;19.10;45.70
33564;DHT22;19894;48.452;11.494;2022-11-18T15:41:19;19.10;45.70
33564;DHT22;19894;48.452;11.494;2022-11-18T15:43:46;19.10;45.70
33564;DHT22;19894;48.452;11.494;2022-11-18T15:46:12;19.10;45.80
33564;DHT22;19894;48.452;11.494;2022-11-18T15:48:37;19.10;45.80
33564;DHT22;19894;48.452;11.494;2022-11-18T15:51:03;19.10;45.80
33564;DHT22;19894;48.452;11.494;2022-11-18T15:53:29;19.10;45.80
33564;DHT22;19894;48.452;11.494;2022-11-18T15:56:15;19.10;45.90
33564;DHT22;19894;48.452;11.494;2022-11-18T16:01:19;19.00;45.80
33564;DHT22;19894;48.452;11.494;2022-11-18T16:03:45;19.00;45.80
33564;DHT22;19894;48.452;11.494;2022-11-18T16:06:10;19.00;45.70
33564;DHT22;19894;48.452;11.494;2022-11-18T16:08:36;19.10;45.80
33564;DHT22;19894;48.452;11.494;2022-11-18T16:11:01;19.10;45.80
33564;DHT22;19894;48.452;11.494;2022-11-18T16:13:46;19.10;45.80
33564;DHT22;19894;48.452;11.494;2022-11-18T16:16:22;19.10;45.70
33564;DHT22;19894;48.452;11.494;2022-11-18T16:18:56;19.10;45.70
33564;DHT22;19894;48.452;11.494;2022-11-18T16:21:22;19.10;45.70
33564;DHT22;19894;48.452;11.494;2022-11-18T16:23:48;19.10;45.70
33564;DHT22;19894;48.452;11.494;2022-11-18T16:26:13;19.10;45.70
33564;DHT22;19894;48.452;11.494;2022-11-18T16:28:39;19.10;45.70
33564;DHT22;19894;48.452;11.494;2022-11-18T16:31:07;19.10;45.70
33564;DHT22;19894;48.452;11.494;2022-11-18T16:33:52;19.10;45.70
33564;DHT22;19894;48.452;11.494;2022-11-18T16:36:24;19.10;45.70
33564;DHT22;19894;48.452;11.494;2022-11-18T16:38:50;19.10;45.70
33564;DHT22;19894;48.452;11.494;2022-11-18T16:41:16;19.10;45.80
33564;DHT22;19894;48.452;11.494;2022-11-18T16:43:58;19.10;45.80
33564;DHT22;19894;48.452;11.494;2022-11-18T16:46:24;19.10;45.80
33564;DHT22;19894;48.452;11.494;2022-11-18T16:48:50;19.10;45.90
33564;DHT22;19894;48.452;11.494;2022-11-18T16:51:19;19.10;45.80
33564;DHT22;19894;48.452;11.494;2022-11-18T16:53:56;19.10;45.90
33564;DHT22;19894;48.452;11.494;2022-11-18T16:56:25;19.10;45.90
33564;DHT22;19894;48.452;11.494;2022-11-18T16:58:58;19.10;45.90
33564;DHT22;19894;48.452;11.494;2022-11-18T17:01:24;19.10;45.90
33564;DHT22;19894;48.452;11.494;2022-11-18T17:03:50;19.00;45.80
33564;DHT22;19894;48.452;11.494;2022-11-18T17:06:17;19.00;45.80
33564;DHT22;19894;48.452;11.494;2022-11-18T17:08:42;19.10;45.90
33564;DHT22;19894;48.452;11.494;2022-11-18T17:11:09;19.10;45.90
33564;DHT22;19894;48.452;11.494;2022-11-18T17:13:38;19.00;45.80
33564;DHT22;19894;48.452;11.494;2022-11-18T17:16:06;19.10;45.80
33564;DHT22;19894;48.452;11.494;2022-11-18T17:18:32;19.10;45.80
33564;DHT22;19894;48.452;11.494;2022-11-18T17:21:34;19.00;45.80
33564;DHT22;19894;48.452;11.494;2022-11-18T17:23:53;19.10;45.80
33564;DHT22;19894;48.452;11.494;2022-11-18T17:26:22;19.10;45.80
33564;DHT22;19894;48.452;11.494;2022-11-18T17:28:48;19.10;45.80
33564;DHT22;19894;48.452;11.494;2022-11-18T17:31:16;19.10;45.80
33564;DHT22;19894;48.452;11.494;2022-11-18T17:33:42;19.10;45.80
33564;DHT22;19894;48.452;11.494;2022-11-18T17:36:13;19.10;45.70